Time;durP1;ratioP1;P1;durP2;ratioP2;P2;SDS_P1;SDS_P2;PMS_P1;PMS_P2;Temp;Humidity;BMP_temperature;BMP_pressure;BME280_temperature;BME280_humidity;BME280_pressure;Samples;Min_cycle;Max_cycle;Signal;HPM_P1;HPM_P2
2021/09/27 00:01:48;;;;;;;;;;;15.80;99.90;;;;;;4997407;28;19925;-72
2021/09/27 00:04:20;;;;;;;;;;;15.80;99.90;;;;;;5013715;28;19932;-73
2021/09/27 00:06:47;;;;;;;;;;;15.80;99.90;;;;;;4997468;28;20422;-72
2021/09/27 00:09:13;;;;;;;;;;;15.80;99.90;;;;;;4997419;28;20024;-73
2021/09/27 00:11:45;;;;;;;;;;;15.80;99.90;;;;;;5013518;28;20314;-72
2021/09/27 00:14:17;;;;;;;;;;;15.80;99.90;;;;;;5014496;28;19961;-72
2021/09/27 00:16:43;;;;;;;;;;;15.80;99.90;;;;;;4997161;28;19926;-71
2021/09/27 00:19:10;;;;;;;;;;;15.80;99.90;;;;;;5013274;28;20367;-72
2021/09/27 00:21:42;;;;;;;;;;;15.80;99.90;;;;;;4996717;28;19930;-72
2021/09/27 00:24:08;;;;;;;;;;;15.70;99.90;;;;;;5013133;28;20400;-72
2021/09/27 00:26:40;;;;;;;;;;;15.70;99.90;;;;;;4996927;28;20334;-72
2021/09/27 00:29:12;;;;;;;;;;;15.70;99.90;;;;;;4996963;28;20251;-73
2021/09/27 00:31:44;;;;;;;;;;;15.70;99.90;;;;;;4996528;28;19925;-72
2021/09/27 00:34:16;;;;;;;;;;;15.70;99.90;;;;;;4996474;28;19925;-73
2021/09/27 00:36:42;;;;;;;;;;;15.70;99.90;;;;;;5013764;28;20352;-73
2021/09/27 00:39:14;;;;;;;;;;;15.70;99.90;;;;;;4996806;28;19926;-72
2021/09/27 00:41:46;;;;;;;;;;;15.70;99.90;;;;;;5012958;28;20295;-73
2021/09/27 00:44:17;;;;;;;;;;;15.80;99.90;;;;;;4996212;28;19930;-72
2021/09/27 00:46:50;;;;;;;;;;;15.70;99.90;;;;;;4996645;28;19925;-72
2021/09/27 00:49:17;;;;;;;;;;;15.70;99.90;;;;;;4996484;28;20411;-72
2021/09/27 00:51:48;;;;;;;;;;;15.70;99.90;;;;;;4997356;28;20028;-72
2021/09/27 00:54:21;;;;;;;;;;;15.70;99.90;;;;;;5013498;28;19926;-73
2021/09/27 00:57:03;;;;;;;;;;;15.70;99.90;;;;;;5013749;28;19925;-72
2021/09/27 00:59:30;;;;;;;;;;;15.70;99.90;;;;;;5013635;28;19949;-73
2021/09/27 01:02:02;;;;;;;;;;;15.70;99.90;;;;;;5012068;28;20023;-73
2021/09/27 01:04:34;;;;;;;;;;;15.70;99.90;;;;;;4995255;28;19932;-72
2021/09/27 01:07:07;;;;;;;;;;;15.70;99.90;;;;;;4995529;28;19953;-73
2021/09/27 01:09:59;;;;;;;;;;;15.60;99.90;;;;;;5012988;28;19936;-73
2021/09/27 01:12:50;;;;;;;;;;;15.60;99.90;;;;;;4975647;28;20011;-73
2021/09/27 01:15:32;;;;;;;;;;;15.60;99.90;;;;;;4995081;28;19925;-73
2021/09/27 01:18:15;;;;;;;;;;;15.50;99.90;;;;;;4996178;28;19925;-72
2021/09/27 01:20:56;;;;;;;;;;;15.50;99.90;;;;;;5011685;28;19935;-72
2021/09/27 01:23:41;;;;;;;;;;;15.40;99.90;;;;;;5012873;28;20028;-73
2021/09/27 01:26:31;;;;;;;;;;;15.40;99.90;;;;;;4996649;28;19932;-73
2021/09/27 01:29:06;;;;;;;;;;;15.40;99.90;;;;;;5013335;28;20025;-73
2021/09/27 01:31:38;;;;;;;;;;;15.40;99.90;;;;;;5011862;28;19929;-73
2021/09/27 01:34:19;;;;;;;;;;;15.40;99.90;;;;;;5011482;28;20426;-73
2021/09/27 01:37:01;;;;;;;;;;;15.30;99.90;;;;;;4995087;28;19929;-73
2021/09/27 01:39:36;;;;;;;;;;;15.30;99.90;;;;;;5011343;28;19925;-73
2021/09/27 01:42:09;;;;;;;;;;;15.30;99.90;;;;;;5012356;28;20031;-73
2021/09/27 01:44:44;;;;;;;;;;;15.30;99.90;;;;;;5010748;28;19931;-73
2021/09/27 01:47:16;;;;;;;;;;;15.20;99.90;;;;;;5012045;28;20008;-72
2021/09/27 01:50:07;;;;;;;;;;;15.20;99.90;;;;;;4995367;28;19937;-72
2021/09/27 01:52:59;;;;;;;;;;;15.20;99.90;;;;;;5011772;28;19935;-73
2021/09/27 01:55:36;;;;;;;;;;;15.20;99.90;;;;;;4994923;28;19937;-73
2021/09/27 01:58:12;;;;;;;;;;;15.20;99.90;;;;;;5012906;28;20332;-73
2021/09/27 02:00:49;;;;;;;;;;;15.20;99.90;;;;;;5011714;28;19929;-73
2021/09/27 02:03:27;;;;;;;;;;;15.10;99.90;;;;;;4994821;28;19932;-73
2021/09/27 02:06:00;;;;;;;;;;;15.10;99.90;;;;;;4995172;28;19926;-73
2021/09/27 02:08:52;;;;;;;;;;;15.00;99.90;;;;;;5011531;28;20035;-73
2021/09/27 02:11:23;;;;;;;;;;;15.00;99.90;;;;;;5012611;28;19972;-73
2021/09/27 02:13:59;;;;;;;;;;;15.00;99.90;;;;;;4994857;28;19931;-73
2021/09/27 02:16:31;;;;;;;;;;;15.00;99.90;;;;;;4994662;28;20027;-72
2021/09/27 02:19:11;;;;;;;;;;;15.00;99.90;;;;;;5012478;28;20310;-73
2021/09/27 02:21:47;;;;;;;;;;;14.90;99.90;;;;;;5012383;28;19925;-73
2021/09/27 02:24:18;;;;;;;;;;;14.90;99.90;;;;;;5011998;28;20299;-73
2021/09/27 02:26:50;;;;;;;;;;;14.90;99.90;;;;;;4994933;28;19926;-72
2021/09/27 02:29:22;;;;;;;;;;;14.90;99.90;;;;;;5012493;28;19932;-73
2021/09/27 02:32:23;;;;;;;;;;;14.80;99.90;;;;;;5012239;28;19926;-72
2021/09/27 02:34:57;;;;;;;;;;;14.90;99.90;;;;;;4980912;28;19936;-73
2021/09/27 02:37:27;;;;;;;;;;;14.80;99.90;;;;;;5011123;28;20451;-73
2021/09/27 02:39:59;;;;;;;;;;;14.80;99.90;;;;;;5012089;28;19925;-73
2021/09/27 02:42:31;;;;;;;;;;;14.80;99.90;;;;;;4994788;28;20364;-73
2021/09/27 02:44:58;;;;;;;;;;;14.70;99.90;;;;;;4994285;28;20355;-73
2021/09/27 02:47:29;;;;;;;;;;;14.70;99.90;;;;;;4994690;28;20012;-73
2021/09/27 02:49:57;;;;;;;;;;;14.70;99.90;;;;;;5012135;28;20016;-73
2021/09/27 02:52:29;;;;;;;;;;;14.70;99.90;;;;;;5012212;28;19926;-72
2021/09/27 02:55:05;;;;;;;;;;;14.70;99.90;;;;;;5011701;28;19980;-73
2021/09/27 02:58:12;;;;;;;;;;;14.70;99.90;;;;;;4995321;28;20414;-73
2021/09/27 03:00:58;;;;;;;;;;;14.70;99.90;;;;;;4936105;29;19927;-73
2021/09/27 03:03:35;;;;;;;;;;;14.70;99.90;;;;;;5001681;28;19934;-73
2021/09/27 03:06:07;;;;;;;;;;;14.70;99.90;;;;;;4983199;28;19940;-73
2021/09/27 03:08:39;;;;;;;;;;;14.70;99.90;;;;;;4958278;28;19926;-73
2021/09/27 03:11:05;;;;;;;;;;;14.70;99.90;;;;;;4968875;28;19976;-73
2021/09/27 03:13:58;;;;;;;;;;;14.70;99.90;;;;;;4978323;28;20016;-73
2021/09/27 03:16:54;;;;;;;;;;;14.70;99.90;;;;;;4958756;28;20388;-72
2021/09/27 03:19:31;;;;;;;;;;;14.70;99.90;;;;;;4987472;28;19925;-73
2021/09/27 03:22:17;;;;;;;;;;;14.70;99.90;;;;;;4974951;28;20012;-72
2021/09/27 03:24:56;;;;;;;;;;;14.70;99.90;;;;;;4966937;28;20396;-73
2021/09/27 03:27:29;;;;;;;;;;;14.70;99.90;;;;;;4977626;28;20353;-72
2021/09/27 03:30:07;;;;;;;;;;;14.80;99.90;;;;;;4993910;28;19925;-73
2021/09/27 03:32:39;;;;;;;;;;;14.90;99.90;;;;;;4976680;28;19981;-72
2021/09/27 03:35:19;;;;;;;;;;;14.90;99.90;;;;;;4991822;28;20016;-73
2021/09/27 03:37:53;;;;;;;;;;;14.90;99.90;;;;;;4996860;28;19971;-72
2021/09/27 03:40:26;;;;;;;;;;;14.90;99.90;;;;;;4997955;28;19929;-72
2021/09/27 03:42:58;;;;;;;;;;;14.90;99.90;;;;;;4996300;28;19925;-72
2021/09/27 03:45:35;;;;;;;;;;;14.90;99.90;;;;;;4996941;28;19925;-72
2021/09/27 03:48:13;;;;;;;;;;;14.90;99.90;;;;;;5015479;28;20024;-73
2021/09/27 03:50:49;;;;;;;;;;;14.90;99.90;;;;;;5014414;28;19926;-73
2021/09/27 03:53:25;;;;;;;;;;;14.90;99.90;;;;;;4997085;28;19964;-72
2021/09/27 03:56:02;;;;;;;;;;;14.80;99.90;;;;;;4980957;28;19997;-73
2021/09/27 03:58:37;;;;;;;;;;;14.80;99.90;;;;;;5014569;28;19975;-72
2021/09/27 04:01:16;;;;;;;;;;;14.80;99.90;;;;;;4997527;28;20387;-73
2021/09/27 04:04:07;;;;;;;;;;;14.80;99.90;;;;;;4997537;28;19929;-72
2021/09/27 04:06:38;;;;;;;;;;;14.80;99.90;;;;;;4997127;28;20354;-74
2021/09/27 04:09:15;;;;;;;;;;;14.80;99.90;;;;;;5014298;28;20400;-72
2021/09/27 04:12:02;;;;;;;;;;;14.80;99.90;;;;;;4982765;28;19934;-72
2021/09/27 04:14:53;;;;;;;;;;;14.80;99.90;;;;;;4987359;28;20004;-72
2021/09/27 04:17:36;;;;;;;;;;;14.70;99.90;;;;;;4991203;28;19981;-73
2021/09/27 04:20:09;;;;;;;;;;;14.70;99.90;;;;;;4986355;28;20020;-71
2021/09/27 04:23:08;;;;;;;;;;;14.70;99.90;;;;;;4998394;28;19930;-72
2021/09/27 04:25:46;;;;;;;;;;;14.70;99.90;;;;;;5011600;28;19926;-72
2021/09/27 04:28:40;;;;;;;;;;;14.80;99.90;;;;;;5013433;28;20020;-73
2021/09/27 04:31:13;;;;;;;;;;;14.70;99.90;;;;;;5002287;28;20020;-73
2021/09/27 04:33:58;;;;;;;;;;;14.70;99.90;;;;;;4985344;28;19926;-71
2021/09/27 04:36:32;;;;;;;;;;;14.70;99.90;;;;;;4993930;28;19933;-72
2021/09/27 04:39:08;;;;;;;;;;;14.70;99.90;;;;;;4984509;28;19984;-73
2021/09/27 04:41:53;;;;;;;;;;;14.70;99.90;;;;;;4976420;28;20024;-72
2021/09/27 04:44:20;;;;;;;;;;;14.70;99.90;;;;;;4993818;28;19948;-72
2021/09/27 04:46:53;;;;;;;;;;;14.70;99.90;;;;;;4994602;28;20017;-72
2021/09/27 04:49:43;;;;;;;;;;;14.70;99.90;;;;;;4999217;28;19933;-72
2021/09/27 04:52:30;;;;;;;;;;;14.80;99.90;;;;;;4977367;28;20020;-72
2021/09/27 04:55:05;;;;;;;;;;;14.80;99.90;;;;;;4975629;28;19925;-73
2021/09/27 04:57:52;;;;;;;;;;;14.80;99.90;;;;;;4993748;28;19972;-72
2021/09/27 05:00:26;;;;;;;;;;;14.80;99.90;;;;;;4975921;28;19926;-71
2021/09/27 05:02:58;;;;;;;;;;;14.80;99.90;;;;;;4976312;28;19940;-71
2021/09/27 05:05:36;;;;;;;;;;;14.80;99.90;;;;;;4975328;28;20403;-72
2021/09/27 05:08:10;;;;;;;;;;;14.80;99.90;;;;;;4975708;28;20364;-71
2021/09/27 05:10:55;;;;;;;;;;;14.80;99.90;;;;;;4993590;28;19965;-72
2021/09/27 05:13:45;;;;;;;;;;;14.80;99.90;;;;;;4993223;28;19933;-71
2021/09/27 05:16:30;;;;;;;;;;;14.80;99.90;;;;;;4975289;28;19925;-72
2021/09/27 05:19:31;;;;;;;;;;;14.70;99.90;;;;;;4975600;28;19973;-71
2021/09/27 05:22:12;;;;;;;;;;;14.70;99.90;;;;;;4965077;28;19961;-72
2021/09/27 05:24:42;;;;;;;;;;;14.70;99.90;;;;;;4975259;28;20032;-71
2021/09/27 05:27:13;;;;;;;;;;;14.60;99.90;;;;;;4975391;28;19926;-71
2021/09/27 05:29:45;;;;;;;;;;;14.60;99.90;;;;;;4992578;28;19932;-71
2021/09/27 05:32:55;;;;;;;;;;;14.60;99.90;;;;;;4992774;28;20483;-72
2021/09/27 05:35:22;;;;;;;;;;;14.60;99.90;;;;;;4932264;29;20312;-71
2021/09/27 05:37:59;;;;;;;;;;;14.60;99.90;;;;;;4932499;29;19937;-71
2021/09/27 05:40:45;;;;;;;;;;;14.60;99.90;;;;;;4935505;28;19968;-71
2021/09/27 05:43:17;;;;;;;;;;;14.50;99.90;;;;;;4975989;28;19925;-72
2021/09/27 05:46:01;;;;;;;;;;;14.60;99.90;;;;;;4974771;28;20029;-71
2021/09/27 05:48:32;;;;;;;;;;;14.60;99.90;;;;;;4975177;28;19925;-72
2021/09/27 05:51:07;;;;;;;;;;;14.60;99.90;;;;;;4975947;28;20388;-72
2021/09/27 05:53:45;;;;;;;;;;;14.60;99.90;;;;;;4974890;28;19926;-72
2021/09/27 05:56:15;;;;;;;;;;;14.60;99.90;;;;;;4974702;28;20050;-71
2021/09/27 05:59:02;;;;;;;;;;;14.60;99.90;;;;;;4992276;28;19932;-71
2021/09/27 06:01:43;;;;;;;;;;;14.60;99.90;;;;;;4974859;28;19953;-72
2021/09/27 06:04:10;;;;;;;;;;;14.60;99.90;;;;;;4974378;28;19976;-72
2021/09/27 06:06:44;;;;;;;;;;;14.60;99.90;;;;;;4974980;28;20487;-71
2021/09/27 06:09:35;;;;;;;;;;;14.60;99.90;;;;;;4992205;28;19926;-71
2021/09/27 06:12:12;;;;;;;;;;;14.60;99.90;;;;;;4974395;28;20344;-71
2021/09/27 06:14:44;;;;;;;;;;;14.60;99.90;;;;;;4974190;28;19926;-72
2021/09/27 06:17:22;;;;;;;;;;;14.60;99.90;;;;;;4992000;28;20008;-71
2021/09/27 06:19:59;;;;;;;;;;;14.60;99.90;;;;;;4974508;28;20053;-72
2021/09/27 06:22:32;;;;;;;;;;;14.60;99.90;;;;;;4974635;28;20304;-72
2021/09/27 06:25:10;;;;;;;;;;;14.60;99.90;;;;;;4962572;28;20004;-71
2021/09/27 06:27:47;;;;;;;;;;;14.60;99.90;;;;;;4992364;28;20036;-73
2021/09/27 06:30:29;;;;;;;;;;;14.70;99.90;;;;;;4971895;28;20402;-72
2021/09/27 06:33:04;;;;;;;;;;;14.70;99.90;;;;;;4987816;28;20414;-72
2021/09/27 06:35:37;;;;;;;;;;;14.80;99.90;;;;;;4977487;28;20281;-72
2021/09/27 06:38:10;;;;;;;;;;;14.80;99.90;;;;;;5006451;28;19981;-72
2021/09/27 06:40:45;;;;;;;;;;;14.80;99.90;;;;;;4985432;28;20031;-73
2021/09/27 06:43:15;;;;;;;;;;;14.80;99.90;;;;;;4997584;28;19976;-73
2021/09/27 06:45:47;;;;;;;;;;;14.80;99.90;;;;;;4976596;28;20030;-73
2021/09/27 06:48:19;;;;;;;;;;;14.80;99.90;;;;;;4987462;28;20308;-73
2021/09/27 06:50:51;;;;;;;;;;;14.90;99.90;;;;;;5002018;28;19925;-72
2021/09/27 06:53:18;;;;;;;;;;;14.90;99.90;;;;;;4979533;28;20266;-73
2021/09/27 06:55:46;;;;;;;;;;;14.90;99.90;;;;;;4990382;28;19973;-73
2021/09/27 06:58:13;;;;;;;;;;;15.00;99.90;;;;;;4980492;28;19969;-73
2021/09/27 07:00:41;;;;;;;;;;;15.00;99.90;;;;;;4984365;28;19929;-72
2021/09/27 07:03:08;;;;;;;;;;;15.10;99.90;;;;;;5005137;28;19980;-73
2021/09/27 07:05:34;;;;;;;;;;;15.10;99.90;;;;;;4993534;28;19932;-74
2021/09/27 07:08:01;;;;;;;;;;;15.20;99.90;;;;;;4989704;28;19962;-73
2021/09/27 07:10:28;;;;;;;;;;;15.30;99.90;;;;;;4981831;28;19936;-73
2021/09/27 07:12:59;;;;;;;;;;;15.30;99.90;;;;;;4993634;28;19926;-73
2021/09/27 07:15:31;;;;;;;;;;;15.40;99.90;;;;;;4976674;28;19991;-73
2021/09/27 07:17:58;;;;;;;;;;;15.50;99.90;;;;;;4995322;28;20352;-73
2021/09/27 07:20:30;;;;;;;;;;;15.50;99.90;;;;;;5003143;28;19929;-73
2021/09/27 07:23:02;;;;;;;;;;;15.60;99.90;;;;;;5002888;28;19925;-73
2021/09/27 07:25:30;;;;;;;;;;;15.70;99.90;;;;;;5009301;28;19925;-73
2021/09/27 07:28:02;;;;;;;;;;;15.70;99.90;;;;;;5006978;28;19925;-74
2021/09/27 07:30:34;;;;;;;;;;;15.80;99.90;;;;;;4982610;28;19977;-73
2021/09/27 07:33:03;;;;;;;;;;;15.90;99.90;;;;;;4993804;28;20387;-72
2021/09/27 07:35:31;;;;;;;;;;;15.90;99.90;;;;;;4987526;28;19926;-72
2021/09/27 07:37:58;;;;;;;;;;;16.00;99.90;;;;;;4990492;28;19977;-72
2021/09/27 07:40:31;;;;;;;;;;;16.00;99.90;;;;;;4971347;28;19925;-73
2021/09/27 07:42:58;;;;;;;;;;;16.10;99.90;;;;;;4990885;28;19926;-72
2021/09/27 07:45:26;;;;;;;;;;;16.20;99.90;;;;;;4992831;28;19988;-73
2021/09/27 07:47:53;;;;;;;;;;;16.20;99.90;;;;;;4985532;28;20036;-73
2021/09/27 07:50:25;;;;;;;;;;;16.30;99.90;;;;;;4977973;28;20000;-73
2021/09/27 07:52:52;;;;;;;;;;;16.40;99.90;;;;;;4979721;28;20340;-73
2021/09/27 07:55:23;;;;;;;;;;;16.50;99.90;;;;;;4989278;28;20028;-74
2021/09/27 07:57:56;;;;;;;;;;;16.40;99.90;;;;;;5007434;28;19926;-72
2021/09/27 08:00:27;;;;;;;;;;;16.50;99.90;;;;;;4997082;28;19948;-73
2021/09/27 08:02:54;;;;;;;;;;;16.50;99.90;;;;;;4997034;28;19949;-77
2021/09/27 08:05:23;;;;;;;;;;;16.60;99.90;;;;;;5014272;28;20366;-73
2021/09/27 08:07:50;;;;;;;;;;;16.60;99.90;;;;;;4996944;28;20396;-73
2021/09/27 08:10:22;;;;;;;;;;;16.70;99.90;;;;;;4996751;28;20456;-73
2021/09/27 08:12:54;;;;;;;;;;;16.80;99.90;;;;;;4997597;28;20272;-73
2021/09/27 08:15:23;;;;;;;;;;;16.80;99.90;;;;;;4996434;28;19926;-73
2021/09/27 08:17:55;;;;;;;;;;;16.90;99.90;;;;;;4996753;28;19925;-73
2021/09/27 08:20:30;;;;;;;;;;;17.00;99.90;;;;;;4997696;28;20407;-74
2021/09/27 08:22:57;;;;;;;;;;;17.00;99.90;;;;;;5014371;28;20482;-73
2021/09/27 08:25:25;;;;;;;;;;;17.00;99.90;;;;;;4996863;28;19933;-73
2021/09/27 08:27:53;;;;;;;;;;;17.10;99.90;;;;;;5013511;28;20032;-73
2021/09/27 08:30:34;;;;;;;;;;;17.20;99.90;;;;;;4997224;28;19933;-72
2021/09/27 08:33:06;;;;;;;;;;;17.30;99.90;;;;;;4996982;28;19925;-73
2021/09/27 08:35:39;;;;;;;;;;;17.30;99.90;;;;;;4996600;28;19932;-73
2021/09/27 08:38:15;;;;;;;;;;;17.40;99.90;;;;;;5013178;28;19937;-73
2021/09/27 08:41:00;;;;;;;;;;;17.40;99.90;;;;;;4996871;28;20512;-73
2021/09/27 08:43:51;;;;;;;;;;;17.50;99.90;;;;;;5014030;28;20381;-73
2021/09/27 08:46:31;;;;;;;;;;;17.50;99.90;;;;;;4996669;28;19932;-73
2021/09/27 08:49:15;;;;;;;;;;;17.60;99.90;;;;;;4996746;28;20021;-73
2021/09/27 08:51:42;;;;;;;;;;;17.60;99.90;;;;;;5013974;28;19933;-73
2021/09/27 08:54:17;;;;;;;;;;;17.70;99.90;;;;;;5013570;28;19947;-74
2021/09/27 08:56:56;;;;;;;;;;;17.80;99.90;;;;;;4996224;28;19936;-73
2021/09/27 08:59:43;;;;;;;;;;;17.90;99.90;;;;;;5013970;28;19926;-73
2021/09/27 09:02:21;;;;;;;;;;;18.00;99.90;;;;;;4996247;28;19932;-73
2021/09/27 09:04:55;;;;;;;;;;;18.00;99.90;;;;;;4980300;28;20403;-73
2021/09/27 09:07:28;;;;;;;;;;;18.00;99.90;;;;;;4997468;28;19925;-74
2021/09/27 09:09:59;;;;;;;;;;;18.00;99.90;;;;;;5012655;28;20458;-73
2021/09/27 09:12:33;;;;;;;;;;;18.00;99.90;;;;;;4996493;28;20016;-73
2021/09/27 09:15:05;;;;;;;;;;;17.90;99.90;;;;;;4995679;28;19932;-73
2021/09/27 09:17:37;;;;;;;;;;;17.90;99.90;;;;;;5012416;28;20041;-73
2021/09/27 09:20:14;;;;;;;;;;;17.80;99.90;;;;;;5013634;28;20113;-73
2021/09/27 09:22:46;;;;;;;;;;;17.80;99.90;;;;;;4997025;28;19925;-74
2021/09/27 09:25:19;;;;;;;;;;;17.80;99.90;;;;;;4995490;28;20369;-73
2021/09/27 09:27:51;;;;;;;;;;;18.00;99.90;;;;;;4996980;28;19932;-73
2021/09/27 09:30:26;;;;;;;;;;;18.00;99.90;;;;;;4995924;28;20402;-73
2021/09/27 09:32:58;;;;;;;;;;;17.90;99.90;;;;;;4996811;28;20404;-73
2021/09/27 09:35:31;;;;;;;;;;;17.90;99.90;;;;;;4995371;28;20024;-73
2021/09/27 09:38:08;;;;;;;;;;;18.00;99.90;;;;;;5011984;28;19929;-73
2021/09/27 09:40:40;;;;;;;;;;;18.00;99.90;;;;;;5014863;28;19973;-73
2021/09/27 09:43:13;;;;;;;;;;;18.00;99.90;;;;;;5013878;28;20277;-72
2021/09/27 09:45:41;;;;;;;;;;;18.10;99.90;;;;;;4996186;28;19925;-73
2021/09/27 09:48:19;;;;;;;;;;;18.10;99.90;;;;;;5013154;28;19930;-73
2021/09/27 09:50:55;;;;;;;;;;;18.30;99.90;;;;;;4996571;28;20012;-73
2021/09/27 09:53:21;;;;;;;;;;;18.40;99.90;;;;;;4995364;28;19926;-73
2021/09/27 09:55:55;;;;;;;;;;;18.40;99.90;;;;;;4995143;28;20066;-73
2021/09/27 09:58:32;;;;;;;;;;;18.30;99.90;;;;;;4995137;28;19992;-73
2021/09/27 10:01:06;;;;;;;;;;;18.40;99.90;;;;;;5014310;28;19929;-72
2021/09/27 10:03:39;;;;;;;;;;;18.60;99.90;;;;;;4996364;28;19925;-73
2021/09/27 10:06:23;;;;;;;;;;;18.80;99.90;;;;;;5011644;28;20025;-73
2021/09/27 10:08:56;;;;;;;;;;;18.90;99.90;;;;;;5012250;28;19929;-73
2021/09/27 10:11:33;;;;;;;;;;;19.00;99.90;;;;;;5011651;28;20059;-73
2021/09/27 10:14:17;;;;;;;;;;;19.10;99.90;;;;;;4995100;28;20047;-73
2021/09/27 10:16:51;;;;;;;;;;;19.20;99.90;;;;;;5012397;28;19929;-73
2021/09/27 10:19:29;;;;;;;;;;;19.30;99.90;;;;;;4995174;28;20027;-73
2021/09/27 10:22:10;;;;;;;;;;;19.40;99.90;;;;;;4995195;28;19925;-73
2021/09/27 10:24:43;;;;;;;;;;;19.50;99.90;;;;;;5012276;28;20384;-73
2021/09/27 10:27:22;;;;;;;;;;;19.60;99.90;;;;;;4995145;28;20023;-73
2021/09/27 10:29:50;;;;;;;;;;;19.70;99.90;;;;;;5012274;28;20302;-72
2021/09/27 10:32:27;;;;;;;;;;;19.80;99.90;;;;;;5011453;28;19947;-73
2021/09/27 10:35:04;;;;;;;;;;;19.90;99.90;;;;;;4994847;28;19925;-73
2021/09/27 10:37:36;;;;;;;;;;;19.90;99.90;;;;;;4994608;28;19935;-73
2021/09/27 10:40:03;;;;;;;;;;;20.10;99.90;;;;;;4994531;28;19926;-73
2021/09/27 10:42:46;;;;;;;;;;;20.10;99.90;;;;;;4994767;28;19925;-73
2021/09/27 10:45:14;;;;;;;;;;;20.30;99.90;;;;;;4994695;28;19926;-73
2021/09/27 10:47:47;;;;;;;;;;;20.40;99.90;;;;;;5011376;28;19936;-73
2021/09/27 10:50:31;;;;;;;;;;;20.50;99.90;;;;;;5012810;28;20370;-73
2021/09/27 10:53:06;;;;;;;;;;;20.60;99.90;;;;;;4995614;28;19926;-73
2021/09/27 10:55:53;;;;;;;;;;;20.70;99.90;;;;;;5009887;28;20400;-73
2021/09/27 10:58:33;;;;;;;;;;;20.80;99.90;;;;;;4994527;28;19961;-72
2021/09/27 11:01:00;;;;;;;;;;;20.90;99.90;;;;;;4994242;28;20451;-72
2021/09/27 11:03:42;;;;;;;;;;;20.90;99.90;;;;;;4994617;28;20032;-72
2021/09/27 11:06:30;;;;;;;;;;;20.90;99.90;;;;;;5011465;28;19925;-73
2021/09/27 11:09:05;;;;;;;;;;;20.80;99.90;;;;;;4994995;28;19948;-74
2021/09/27 11:11:33;;;;;;;;;;;20.60;99.90;;;;;;5010611;28;20441;-73
2021/09/27 11:14:16;;;;;;;;;;;20.50;99.90;;;;;;4993776;28;20040;-74
2021/09/27 11:16:54;;;;;;;;;;;20.30;99.90;;;;;;5011673;28;20012;-73
2021/09/27 11:19:26;;;;;;;;;;;20.20;99.90;;;;;;5010390;28;19929;-73
2021/09/27 11:21:53;;;;;;;;;;;20.30;99.90;;;;;;4997733;28;19952;-73
2021/09/27 11:24:19;;;;;;;;;;;20.40;99.90;;;;;;4981749;28;20020;-73
2021/09/27 11:26:58;;;;;;;;;;;20.40;99.90;;;;;;5015536;28;20019;-73
2021/09/27 11:29:44;;;;;;;;;;;20.60;99.90;;;;;;4997928;28;20020;-73
2021/09/27 11:32:22;;;;;;;;;;;20.60;99.90;;;;;;5014216;28;20024;-72
2021/09/27 11:35:02;;;;;;;;;;;20.70;99.90;;;;;;4997056;28;19961;-73
2021/09/27 11:37:33;;;;;;;;;;;20.90;99.90;;;;;;4997423;28;20017;-73
2021/09/27 11:40:00;;;;;;;;;;;20.90;99.90;;;;;;5013616;28;20019;-73
2021/09/27 11:42:48;;;;;;;;;;;20.90;99.90;;;;;;4997580;28;20427;-73
2021/09/27 11:45:30;;;;;;;;;;;20.90;99.90;;;;;;4997042;28;20020;-73
2021/09/27 11:48:06;;;;;;;;;;;21.10;99.90;;;;;;4997459;28;20398;-74
2021/09/27 11:50:48;;;;;;;;;;;21.20;99.90;;;;;;5013610;28;20037;-74
2021/09/27 11:53:19;;;;;;;;;;;21.30;99.90;;;;;;4996942;28;20020;-74
2021/09/27 11:55:49;;;;;;;;;;;21.40;99.90;;;;;;4980517;28;19926;-73
2021/09/27 11:58:30;;;;;;;;;;;21.70;99.90;;;;;;4998210;28;19931;-74
2021/09/27 12:01:04;;;;;;;;;;;21.80;99.90;;;;;;5014559;28;19961;-74
2021/09/27 12:03:44;;;;;;;;;;;21.80;99.90;;;;;;4997429;28;20396;-74
2021/09/27 12:06:19;;;;;;;;;;;21.80;99.90;;;;;;4996632;28;19936;-73
2021/09/27 12:08:51;;;;;;;;;;;22.00;99.90;;;;;;4978720;28;19926;-74
2021/09/27 12:11:23;;;;;;;;;;;22.00;99.90;;;;;;4977632;28;19926;-73
2021/09/27 12:13:51;;;;;;;;;;;22.00;99.90;;;;;;4977214;28;19926;-73
2021/09/27 12:16:21;;;;;;;;;;;22.00;99.90;;;;;;4976407;28;20040;-73
2021/09/27 12:18:52;;;;;;;;;;;22.10;99.90;;;;;;4977536;28;20012;-72
2021/09/27 12:21:53;;;;;;;;;;;22.20;99.90;;;;;;4978198;28;19988;-73
2021/09/27 12:24:22;;;;;;;;;;;22.30;99.90;;;;;;4948014;28;20017;-72
2021/09/27 12:26:54;;;;;;;;;;;22.30;99.90;;;;;;4994156;28;19976;-72
2021/09/27 12:29:26;;;;;;;;;;;22.20;99.90;;;;;;4977133;28;19929;-72
2021/09/27 12:31:57;;;;;;;;;;;21.90;99.90;;;;;;4976274;28;19989;-72
2021/09/27 12:34:43;;;;;;;;;;;21.70;99.90;;;;;;4975347;28;19973;-72
2021/09/27 12:37:16;;;;;;;;;;;21.40;99.90;;;;;;4977452;28;20017;-72
2021/09/27 12:39:43;;;;;;;;;;;21.30;99.90;;;;;;4960520;28;19976;-72
2021/09/27 12:42:23;;;;;;;;;;;21.10;99.90;;;;;;4994446;28;19968;-72
2021/09/27 12:45:24;;;;;;;;;;;21.00;99.90;;;;;;4975913;28;19926;-73
2021/09/27 12:47:58;;;;;;;;;;;21.00;99.90;;;;;;4966946;28;19926;-72
2021/09/27 12:50:26;;;;;;;;;;;20.90;99.90;;;;;;4976021;28;20372;-73
2021/09/27 12:53:00;;;;;;;;;;;21.00;99.90;;;;;;4994059;28;20344;-71
2021/09/27 12:55:44;;;;;;;;;;;21.10;99.90;;;;;;4993285;28;19932;-72
2021/09/27 12:58:37;;;;;;;;;;;21.10;99.90;;;;;;4993817;28;19929;-73
2021/09/27 13:01:12;;;;;;;;;;;21.20;99.90;;;;;;4976170;28;19948;-72
2021/09/27 13:03:42;;;;;;;;;;;21.30;99.90;;;;;;4975805;28;19932;-72
2021/09/27 13:06:15;;;;;;;;;;;21.30;99.90;;;;;;4975605;28;19929;-72
2021/09/27 13:08:49;;;;;;;;;;;21.40;99.90;;;;;;4977276;28;20701;-73
2021/09/27 13:11:21;;;;;;;;;;;21.50;99.90;;;;;;4974847;28;19925;-72
2021/09/27 13:14:08;;;;;;;;;;;21.60;99.90;;;;;;4993584;28;19926;-72
2021/09/27 13:16:40;;;;;;;;;;;21.70;99.90;;;;;;4993563;28;20488;-72
2021/09/27 13:19:32;;;;;;;;;;;21.80;99.90;;;;;;4993265;28;20016;-72
2021/09/27 13:22:04;;;;;;;;;;;21.90;99.90;;;;;;4975710;28;20024;-73
2021/09/27 13:24:36;;;;;;;;;;;21.70;99.90;;;;;;4975127;28;19936;-73
2021/09/27 13:27:02;;;;;;;;;;;21.70;99.90;;;;;;4993322;28;20473;-72
2021/09/27 13:29:36;;;;;;;;;;;21.80;99.90;;;;;;4974972;28;19926;-73
2021/09/27 13:32:28;;;;;;;;;;;21.80;99.90;;;;;;4975674;28;20448;-72
2021/09/27 13:34:55;;;;;;;;;;;21.90;99.90;;;;;;4975054;28;20029;-72
2021/09/27 13:37:46;;;;;;;;;;;22.00;99.90;;;;;;4960516;28;19936;-72
2021/09/27 13:40:30;;;;;;;;;;;22.10;99.90;;;;;;4975353;28;20024;-72
2021/09/27 13:43:29;;;;;;;;;;;22.00;99.90;;;;;;4975103;28;20012;-73
2021/09/27 13:46:06;;;;;;;;;;;21.90;99.90;;;;;;4944903;28;19926;-73
2021/09/27 13:48:37;;;;;;;;;;;22.00;99.90;;;;;;4976385;28;19925;-72
2021/09/27 13:51:04;;;;;;;;;;;22.00;99.90;;;;;;4971951;28;19940;-72
2021/09/27 13:53:33;;;;;;;;;;;22.00;99.90;;;;;;4991090;28;19969;-72
2021/09/27 13:56:07;;;;;;;;;;;21.90;99.90;;;;;;5000090;28;20363;-72
2021/09/27 13:58:34;;;;;;;;;;;21.80;99.90;;;;;;4986800;28;19964;-73
2021/09/27 14:01:06;;;;;;;;;;;21.60;99.90;;;;;;4967433;28;19965;-73
2021/09/27 14:03:38;;;;;;;;;;;21.50;99.90;;;;;;4990314;28;20009;-73
2021/09/27 14:06:05;;;;;;;;;;;21.40;99.90;;;;;;4971220;28;19933;-73
2021/09/27 14:08:36;;;;;;;;;;;21.30;99.90;;;;;;4977291;28;19936;-72
2021/09/27 14:11:08;;;;;;;;;;;21.20;99.90;;;;;;4974290;28;19932;-72
2021/09/27 14:13:35;;;;;;;;;;;21.20;99.90;;;;;;4990282;28;19972;-73
2021/09/27 14:16:08;;;;;;;;;;;21.20;99.90;;;;;;4973354;28;19944;-73
2021/09/27 14:18:35;;;;;;;;;;;21.10;99.90;;;;;;4985116;28;20012;-71
2021/09/27 14:21:07;;;;;;;;;;;21.10;99.90;;;;;;4991112;28;20603;-71
2021/09/27 14:23:33;;;;;;;;;;;21.00;99.90;;;;;;4970282;28;20024;-73
2021/09/27 14:26:00;;;;;;;;;;;21.00;99.90;;;;;;4971525;28;20032;-73
2021/09/27 14:28:33;;;;;;;;;;;20.90;99.90;;;;;;4968473;28;20296;-73
2021/09/27 14:31:02;;;;;;;;;;;20.90;99.90;;;;;;4971656;28;19968;-73
2021/09/27 14:33:35;;;;;;;;;;;21.00;99.90;;;;;;4971109;28;19932;-73
2021/09/27 14:36:07;;;;;;;;;;;21.00;99.90;;;;;;5004255;28;19929;-72
2021/09/27 14:38:40;;;;;;;;;;;20.90;99.90;;;;;;5010872;28;19932;-72
2021/09/27 14:41:15;;;;;;;;;;;20.90;99.90;;;;;;5011755;28;20004;-72
2021/09/27 14:43:43;;;;;;;;;;;20.80;99.90;;;;;;5006438;28;20004;-72
2021/09/27 14:46:15;;;;;;;;;;;20.70;99.90;;;;;;4993626;28;20292;-72
2021/09/27 14:48:48;;;;;;;;;;;20.70;99.90;;;;;;4995116;28;19932;-72
2021/09/27 14:51:16;;;;;;;;;;;20.70;99.90;;;;;;4975559;28;20503;-72
2021/09/27 14:53:43;;;;;;;;;;;20.70;99.90;;;;;;4974589;28;20393;-72
2021/09/27 14:56:16;;;;;;;;;;;20.60;99.90;;;;;;4978400;28;19925;-72
2021/09/27 14:58:49;;;;;;;;;;;20.60;99.90;;;;;;4978418;28;19930;-72
2021/09/27 15:01:16;;;;;;;;;;;20.60;99.90;;;;;;5002329;28;20012;-72
2021/09/27 15:03:50;;;;;;;;;;;20.60;99.90;;;;;;5015527;28;19936;-72